sensor_id;sensor_type;location;lat;lon;timestamp;P1;durP1;ratioP1;P2;durP2;ratioP2
4521;SDS011;2273;48.464;11.926;2024-01-07T00:01:14;16.90;;;9.60;;
4521;SDS011;2273;48.464;11.926;2024-01-07T00:03:40;15.50;;;9.77;;
4521;SDS011;2273;48.464;11.926;2024-01-07T00:06:07;16.23;;;9.60;;
4521;SDS011;2273;48.464;11.926;2024-01-07T00:08:33;16.20;;;9.97;;
4521;SDS011;2273;48.464;11.926;2024-01-07T00:10:58;13.37;;;9.00;;
4521;SDS011;2273;48.464;11.926;2024-01-07T00:13:24;16.80;;;10.40;;
4521;SDS011;2273;48.464;11.926;2024-01-07T00:15:49;17.07;;;10.50;;
4521;SDS011;2273;48.464;11.926;2024-01-07T00:18:15;17.00;;;9.90;;
4521;SDS011;2273;48.464;11.926;2024-01-07T00:20:40;14.77;;;9.00;;
4521;SDS011;2273;48.464;11.926;2024-01-07T00:23:05;15.20;;;9.10;;
4521;SDS011;2273;48.464;11.926;2024-01-07T00:25:31;15.30;;;9.77;;
4521;SDS011;2273;48.464;11.926;2024-01-07T00:27:56;16.87;;;10.10;;
4521;SDS011;2273;48.464;11.926;2024-01-07T00:30:22;16.07;;;10.23;;
4521;SDS011;2273;48.464;11.926;2024-01-07T00:32:48;17.20;;;9.53;;
4521;SDS011;2273;48.464;11.926;2024-01-07T00:35:16;23.47;;;9.70;;
4521;SDS011;2273;48.464;11.926;2024-01-07T00:37:41;15.17;;;9.77;;
4521;SDS011;2273;48.464;11.926;2024-01-07T00:40:07;16.23;;;8.93;;
4521;SDS011;2273;48.464;11.926;2024-01-07T00:42:33;14.93;;;9.70;;
4521;SDS011;2273;48.464;11.926;2024-01-07T00:44:58;28.50;;;9.80;;
4521;SDS011;2273;48.464;11.926;2024-01-07T00:47:24;17.03;;;10.30;;
4521;SDS011;2273;48.464;11.926;2024-01-07T00:49:49;16.10;;;11.03;;
4521;SDS011;2273;48.464;11.926;2024-01-07T00:52:15;14.27;;;9.07;;
4521;SDS011;2273;48.464;11.926;2024-01-07T00:54:40;16.60;;;9.80;;
4521;SDS011;2273;48.464;11.926;2024-01-07T00:57:06;16.67;;;11.03;;
4521;SDS011;2273;48.464;11.926;2024-01-07T00:59:31;21.80;;;10.87;;
4521;SDS011;2273;48.464;11.926;2024-01-07T01:01:56;18.23;;;10.60;;
4521;SDS011;2273;48.464;11.926;2024-01-07T01:04:25;17.40;;;10.13;;
4521;SDS011;2273;48.464;11.926;2024-01-07T01:06:50;17.60;;;10.93;;
4521;SDS011;2273;48.464;11.926;2024-01-07T01:09:16;15.87;;;10.30;;
4521;SDS011;2273;48.464;11.926;2024-01-07T01:11:41;15.67;;;10.07;;
4521;SDS011;2273;48.464;11.926;2024-01-07T01:14:06;18.07;;;10.80;;
4521;SDS011;2273;48.464;11.926;2024-01-07T01:16:32;15.63;;;10.00;;
4521;SDS011;2273;48.464;11.926;2024-01-07T01:18:57;15.53;;;10.30;;
4521;SDS011;2273;48.464;11.926;2024-01-07T01:21:22;18.43;;;10.00;;
4521;SDS011;2273;48.464;11.926;2024-01-07T01:23:48;14.63;;;9.70;;
4521;SDS011;2273;48.464;11.926;2024-01-07T01:26:13;19.07;;;10.67;;
4521;SDS011;2273;48.464;11.926;2024-01-07T01:28:39;19.80;;;10.20;;
4521;SDS011;2273;48.464;11.926;2024-01-07T01:31:05;16.33;;;11.17;;
4521;SDS011;2273;48.464;11.926;2024-01-07T01:33:30;16.43;;;10.83;;
4521;SDS011;2273;48.464;11.926;2024-01-07T01:35:56;19.90;;;10.57;;
4521;SDS011;2273;48.464;11.926;2024-01-07T01:38:21;19.30;;;10.70;;
4521;SDS011;2273;48.464;11.926;2024-01-07T01:40:53;16.00;;;10.00;;
4521;SDS011;2273;48.464;11.926;2024-01-07T01:43:25;19.25;;;12.20;;
4521;SDS011;2273;48.464;11.926;2024-01-07T01:45:55;16.08;;;10.43;;
4521;SDS011;2273;48.464;11.926;2024-01-07T01:48:22;18.40;;;11.07;;
4521;SDS011;2273;48.464;11.926;2024-01-07T01:50:48;20.07;;;11.03;;
4521;SDS011;2273;48.464;11.926;2024-01-07T01:53:14;17.90;;;10.50;;
4521;SDS011;2273;48.464;11.926;2024-01-07T01:55:41;20.40;;;11.75;;
4521;SDS011;2273;48.464;11.926;2024-01-07T01:58:08;17.97;;;11.10;;
4521;SDS011;2273;48.464;11.926;2024-01-07T02:00:34;16.77;;;11.37;;
4521;SDS011;2273;48.464;11.926;2024-01-07T02:02:59;16.97;;;11.10;;
4521;SDS011;2273;48.464;11.926;2024-01-07T02:05:26;17.60;;;11.50;;
4521;SDS011;2273;48.464;11.926;2024-01-07T02:07:51;19.00;;;10.80;;
4521;SDS011;2273;48.464;11.926;2024-01-07T02:10:17;17.23;;;10.30;;
4521;SDS011;2273;48.464;11.926;2024-01-07T02:12:43;18.83;;;11.07;;
4521;SDS011;2273;48.464;11.926;2024-01-07T02:15:08;17.97;;;10.80;;
4521;SDS011;2273;48.464;11.926;2024-01-07T02:17:33;20.20;;;11.40;;
4521;SDS011;2273;48.464;11.926;2024-01-07T02:19:59;16.77;;;10.73;;
4521;SDS011;2273;48.464;11.926;2024-01-07T02:22:25;18.93;;;10.83;;
4521;SDS011;2273;48.464;11.926;2024-01-07T02:24:50;18.50;;;12.10;;
4521;SDS011;2273;48.464;11.926;2024-01-07T02:27:16;18.60;;;11.43;;
4521;SDS011;2273;48.464;11.926;2024-01-07T02:29:41;19.40;;;11.63;;
4521;SDS011;2273;48.464;11.926;2024-01-07T02:32:07;17.17;;;10.60;;
4521;SDS011;2273;48.464;11.926;2024-01-07T02:34:32;18.00;;;10.87;;
4521;SDS011;2273;48.464;11.926;2024-01-07T02:36:58;20.60;;;11.37;;
4521;SDS011;2273;48.464;11.926;2024-01-07T02:39:23;19.77;;;11.87;;
4521;SDS011;2273;48.464;11.926;2024-01-07T02:41:49;18.67;;;11.43;;
4521;SDS011;2273;48.464;11.926;2024-01-07T02:44:15;19.33;;;11.10;;
4521;SDS011;2273;48.464;11.926;2024-01-07T02:46:41;20.13;;;11.80;;
4521;SDS011;2273;48.464;11.926;2024-01-07T02:49:06;21.57;;;11.50;;
4521;SDS011;2273;48.464;11.926;2024-01-07T02:51:32;16.10;;;10.50;;
4521;SDS011;2273;48.464;11.926;2024-01-07T02:53:57;19.47;;;11.20;;
4521;SDS011;2273;48.464;11.926;2024-01-07T02:56:23;20.70;;;11.60;;
4521;SDS011;2273;48.464;11.926;2024-01-07T02:58:48;16.33;;;10.73;;
4521;SDS011;2273;48.464;11.926;2024-01-07T03:01:14;17.10;;;10.73;;
4521;SDS011;2273;48.464;11.926;2024-01-07T03:03:39;16.13;;;10.80;;
4521;SDS011;2273;48.464;11.926;2024-01-07T03:06:05;15.90;;;10.87;;
4521;SDS011;2273;48.464;11.926;2024-01-07T03:08:30;17.03;;;11.00;;
4521;SDS011;2273;48.464;11.926;2024-01-07T03:10:56;15.97;;;10.87;;
4521;SDS011;2273;48.464;11.926;2024-01-07T03:13:21;16.87;;;10.90;;
4521;SDS011;2273;48.464;11.926;2024-01-07T03:15:47;15.93;;;10.70;;
4521;SDS011;2273;48.464;11.926;2024-01-07T03:18:13;16.90;;;10.20;;
4521;SDS011;2273;48.464;11.926;2024-01-07T03:20:38;16.07;;;10.57;;
4521;SDS011;2273;48.464;11.926;2024-01-07T03:23:03;17.50;;;10.70;;
4521;SDS011;2273;48.464;11.926;2024-01-07T03:25:29;16.43;;;9.70;;
4521;SDS011;2273;48.464;11.926;2024-01-07T03:27:54;22.73;;;10.70;;
4521;SDS011;2273;48.464;11.926;2024-01-07T03:30:20;20.37;;;11.57;;
4521;SDS011;2273;48.464;11.926;2024-01-07T03:32:45;16.37;;;10.33;;
4521;SDS011;2273;48.464;11.926;2024-01-07T03:35:11;14.50;;;10.10;;
4521;SDS011;2273;48.464;11.926;2024-01-07T03:37:36;16.20;;;10.53;;
4521;SDS011;2273;48.464;11.926;2024-01-07T03:40:02;15.83;;;10.13;;
4521;SDS011;2273;48.464;11.926;2024-01-07T03:42:27;17.07;;;10.93;;
4521;SDS011;2273;48.464;11.926;2024-01-07T03:44:53;15.63;;;9.50;;
4521;SDS011;2273;48.464;11.926;2024-01-07T03:47:18;12.87;;;9.20;;
4521;SDS011;2273;48.464;11.926;2024-01-07T03:49:43;15.77;;;10.17;;
4521;SDS011;2273;48.464;11.926;2024-01-07T03:52:09;14.40;;;9.70;;
4521;SDS011;2273;48.464;11.926;2024-01-07T03:54:34;14.53;;;9.50;;
4521;SDS011;2273;48.464;11.926;2024-01-07T03:57:00;12.63;;;9.10;;
4521;SDS011;2273;48.464;11.926;2024-01-07T03:59:25;15.53;;;9.10;;
4521;SDS011;2273;48.464;11.926;2024-01-07T04:01:55;14.35;;;9.13;;
4521;SDS011;2273;48.464;11.926;2024-01-07T04:04:21;15.07;;;10.05;;
4521;SDS011;2273;48.464;11.926;2024-01-07T04:06:46;13.90;;;9.63;;
4521;SDS011;2273;48.464;11.926;2024-01-07T04:09:12;15.97;;;9.70;;
4521;SDS011;2273;48.464;11.926;2024-01-07T04:11:40;12.57;;;9.30;;
4521;SDS011;2273;48.464;11.926;2024-01-07T04:14:07;14.48;;;9.15;;
4521;SDS011;2273;48.464;11.926;2024-01-07T04:16:32;14.73;;;9.43;;
4521;SDS011;2273;48.464;11.926;2024-01-07T04:18:58;13.27;;;9.10;;
4521;SDS011;2273;48.464;11.926;2024-01-07T04:21:23;15.70;;;9.73;;
4521;SDS011;2273;48.464;11.926;2024-01-07T04:23:51;13.47;;;9.13;;
4521;SDS011;2273;48.464;11.926;2024-01-07T04:26:17;16.65;;;9.90;;
4521;SDS011;2273;48.464;11.926;2024-01-07T04:28:42;17.80;;;9.70;;
4521;SDS011;2273;48.464;11.926;2024-01-07T04:31:09;14.93;;;9.20;;
4521;SDS011;2273;48.464;11.926;2024-01-07T04:33:34;13.27;;;9.03;;
4521;SDS011;2273;48.464;11.926;2024-01-07T04:36:00;18.20;;;9.40;;
4521;SDS011;2273;48.464;11.926;2024-01-07T04:38:26;15.87;;;9.93;;
4521;SDS011;2273;48.464;11.926;2024-01-07T04:40:51;14.90;;;9.27;;
4521;SDS011;2273;48.464;11.926;2024-01-07T04:43:17;14.30;;;8.67;;
4521;SDS011;2273;48.464;11.926;2024-01-07T04:45:43;11.40;;;8.00;;
4521;SDS011;2273;48.464;11.926;2024-01-07T04:48:09;13.77;;;9.03;;
4521;SDS011;2273;48.464;11.926;2024-01-07T04:50:34;14.00;;;9.17;;
4521;SDS011;2273;48.464;11.926;2024-01-07T04:53:00;14.00;;;9.40;;
4521;SDS011;2273;48.464;11.926;2024-01-07T04:55:25;12.73;;;8.23;;
4521;SDS011;2273;48.464;11.926;2024-01-07T04:57:51;12.73;;;8.53;;
4521;SDS011;2273;48.464;11.926;2024-01-07T05:00:16;14.43;;;8.20;;
4521;SDS011;2273;48.464;11.926;2024-01-07T05:02:42;12.77;;;8.20;;
4521;SDS011;2273;48.464;11.926;2024-01-07T05:05:08;16.57;;;9.90;;
4521;SDS011;2273;48.464;11.926;2024-01-07T05:07:33;14.93;;;8.55;;
4521;SDS011;2273;48.464;11.926;2024-01-07T05:09:59;12.03;;;7.80;;
4521;SDS011;2273;48.464;11.926;2024-01-07T05:12:24;12.30;;;8.30;;
4521;SDS011;2273;48.464;11.926;2024-01-07T05:14:51;14.20;;;8.07;;
4521;SDS011;2273;48.464;11.926;2024-01-07T05:17:16;11.77;;;8.10;;
4521;SDS011;2273;48.464;11.926;2024-01-07T05:19:42;11.37;;;8.40;;
4521;SDS011;2273;48.464;11.926;2024-01-07T05:22:07;11.77;;;8.20;;
4521;SDS011;2273;48.464;11.926;2024-01-07T05:24:33;10.33;;;7.60;;
4521;SDS011;2273;48.464;11.926;2024-01-07T05:26:58;14.23;;;8.47;;
4521;SDS011;2273;48.464;11.926;2024-01-07T05:29:24;11.50;;;7.13;;
4521;SDS011;2273;48.464;11.926;2024-01-07T05:31:49;10.93;;;7.23;;
4521;SDS011;2273;48.464;11.926;2024-01-07T05:34:15;13.63;;;7.90;;
4521;SDS011;2273;48.464;11.926;2024-01-07T05:36:40;14.33;;;7.50;;
4521;SDS011;2273;48.464;11.926;2024-01-07T05:39:05;17.30;;;8.23;;
4521;SDS011;2273;48.464;11.926;2024-01-07T05:41:32;13.07;;;8.00;;
4521;SDS011;2273;48.464;11.926;2024-01-07T05:43:58;14.27;;;7.68;;
4521;SDS011;2273;48.464;11.926;2024-01-07T05:46:23;14.03;;;7.93;;
4521;SDS011;2273;48.464;11.926;2024-01-07T05:48:49;13.87;;;7.60;;
4521;SDS011;2273;48.464;11.926;2024-01-07T05:51:14;11.20;;;7.90;;
4521;SDS011;2273;48.464;11.926;2024-01-07T05:53:41;14.27;;;9.02;;
4521;SDS011;2273;48.464;11.926;2024-01-07T05:56:07;14.77;;;8.15;;
4521;SDS011;2273;48.464;11.926;2024-01-07T05:58:33;15.67;;;7.40;;
4521;SDS011;2273;48.464;11.926;2024-01-07T06:00:58;19.20;;;8.87;;
4521;SDS011;2273;48.464;11.926;2024-01-07T06:03:24;17.40;;;7.97;;
4521;SDS011;2273;48.464;11.926;2024-01-07T06:05:49;11.43;;;7.47;;
4521;SDS011;2273;48.464;11.926;2024-01-07T06:08:15;14.50;;;8.03;;
4521;SDS011;2273;48.464;11.926;2024-01-07T06:10:40;12.37;;;8.30;;
4521;SDS011;2273;48.464;11.926;2024-01-07T06:13:06;15.37;;;8.63;;
4521;SDS011;2273;48.464;11.926;2024-01-07T06:15:32;13.30;;;7.97;;
4521;SDS011;2273;48.464;11.926;2024-01-07T06:17:57;13.70;;;8.30;;
4521;SDS011;2273;48.464;11.926;2024-01-07T06:20:23;13.50;;;8.23;;
4521;SDS011;2273;48.464;11.926;2024-01-07T06:22:49;13.35;;;8.63;;
4521;SDS011;2273;48.464;11.926;2024-01-07T06:25:14;15.00;;;8.53;;
4521;SDS011;2273;48.464;11.926;2024-01-07T06:27:39;15.53;;;9.10;;
4521;SDS011;2273;48.464;11.926;2024-01-07T06:30:06;15.30;;;8.63;;
4521;SDS011;2273;48.464;11.926;2024-01-07T06:32:34;15.70;;;8.40;;
4521;SDS011;2273;48.464;11.926;2024-01-07T06:35:00;13.60;;;8.55;;
4521;SDS011;2273;48.464;11.926;2024-01-07T06:37:26;16.03;;;8.87;;
4521;SDS011;2273;48.464;11.926;2024-01-07T06:39:54;13.25;;;9.02;;
4521;SDS011;2273;48.464;11.926;2024-01-07T06:42:20;15.18;;;9.73;;
4521;SDS011;2273;48.464;11.926;2024-01-07T06:44:45;17.17;;;9.00;;
4521;SDS011;2273;48.464;11.926;2024-01-07T06:47:11;15.27;;;9.10;;
4521;SDS011;2273;48.464;11.926;2024-01-07T06:49:36;15.40;;;8.40;;
4521;SDS011;2273;48.464;11.926;2024-01-07T06:52:02;15.80;;;9.70;;
4521;SDS011;2273;48.464;11.926;2024-01-07T06:54:27;15.20;;;9.97;;
4521;SDS011;2273;48.464;11.926;2024-01-07T06:56:56;15.43;;;9.23;;
4521;SDS011;2273;48.464;11.926;2024-01-07T06:59:21;16.75;;;9.45;;
4521;SDS011;2273;48.464;11.926;2024-01-07T07:01:46;17.60;;;10.13;;
4521;SDS011;2273;48.464;11.926;2024-01-07T07:04:12;17.83;;;10.27;;
4521;SDS011;2273;48.464;11.926;2024-01-07T07:06:37;15.30;;;9.50;;
4521;SDS011;2273;48.464;11.926;2024-01-07T07:09:03;18.00;;;9.50;;
4521;SDS011;2273;48.464;11.926;2024-01-07T07:11:28;17.33;;;10.07;;
4521;SDS011;2273;48.464;11.926;2024-01-07T07:13:54;13.73;;;9.00;;
4521;SDS011;2273;48.464;11.926;2024-01-07T07:16:19;15.00;;;9.63;;
4521;SDS011;2273;48.464;11.926;2024-01-07T07:18:44;18.27;;;10.80;;
4521;SDS011;2273;48.464;11.926;2024-01-07T07:21:10;15.73;;;10.17;;
4521;SDS011;2273;48.464;11.926;2024-01-07T07:23:36;18.07;;;10.50;;
4521;SDS011;2273;48.464;11.926;2024-01-07T07:26:01;15.70;;;10.10;;
4521;SDS011;2273;48.464;11.926;2024-01-07T07:28:26;15.93;;;9.87;;
4521;SDS011;2273;48.464;11.926;2024-01-07T07:30:52;15.13;;;9.10;;
4521;SDS011;2273;48.464;11.926;2024-01-07T07:33:18;17.60;;;9.70;;
4521;SDS011;2273;48.464;11.926;2024-01-07T07:35:43;17.70;;;10.47;;
4521;SDS011;2273;48.464;11.926;2024-01-07T07:38:09;15.40;;;9.60;;
4521;SDS011;2273;48.464;11.926;2024-01-07T07:40:34;14.90;;;9.40;;
4521;SDS011;2273;48.464;11.926;2024-01-07T07:42:59;18.93;;;10.13;;
4521;SDS011;2273;48.464;11.926;2024-01-07T07:45:25;16.00;;;9.70;;
4521;SDS011;2273;48.464;11.926;2024-01-07T07:47:50;19.40;;;9.80;;
4521;SDS011;2273;48.464;11.926;2024-01-07T07:50:16;15.93;;;10.40;;
4521;SDS011;2273;48.464;11.926;2024-01-07T07:52:41;17.93;;;9.73;;
4521;SDS011;2273;48.464;11.926;2024-01-07T07:55:08;17.10;;;10.80;;
4521;SDS011;2273;48.464;11.926;2024-01-07T07:57:34;15.90;;;9.07;;
4521;SDS011;2273;48.464;11.926;2024-01-07T08:00:00;15.97;;;10.50;;
4521;SDS011;2273;48.464;11.926;2024-01-07T08:02:26;19.67;;;10.70;;
4521;SDS011;2273;48.464;11.926;2024-01-07T08:04:51;19.77;;;10.43;;
4521;SDS011;2273;48.464;11.926;2024-01-07T08:07:17;19.53;;;10.70;;
4521;SDS011;2273;48.464;11.926;2024-01-07T08:09:43;17.53;;;10.27;;
4521;SDS011;2273;48.464;11.926;2024-01-07T08:12:08;21.37;;;11.43;;
4521;SDS011;2273;48.464;11.926;2024-01-07T08:14:34;20.40;;;10.93;;
4521;SDS011;2273;48.464;11.926;2024-01-07T08:17:00;18.30;;;11.57;;
4521;SDS011;2273;48.464;11.926;2024-01-07T08:19:26;19.33;;;10.63;;
4521;SDS011;2273;48.464;11.926;2024-01-07T08:21:51;18.27;;;10.27;;
4521;SDS011;2273;48.464;11.926;2024-01-07T08:24:18;20.25;;;11.15;;
4521;SDS011;2273;48.464;11.926;2024-01-07T08:26:43;20.20;;;10.50;;
4521;SDS011;2273;48.464;11.926;2024-01-07T08:29:09;16.80;;;10.73;;
4521;SDS011;2273;48.464;11.926;2024-01-07T08:31:35;19.43;;;10.63;;
4521;SDS011;2273;48.464;11.926;2024-01-07T08:34:00;19.43;;;10.57;;
4521;SDS011;2273;48.464;11.926;2024-01-07T08:36:25;17.33;;;10.63;;
4521;SDS011;2273;48.464;11.926;2024-01-07T08:38:51;18.80;;;11.00;;
4521;SDS011;2273;48.464;11.926;2024-01-07T08:41:17;23.43;;;12.80;;
4521;SDS011;2273;48.464;11.926;2024-01-07T08:43:43;19.80;;;11.70;;
4521;SDS011;2273;48.464;11.926;2024-01-07T08:46:10;20.80;;;11.68;;
4521;SDS011;2273;48.464;11.926;2024-01-07T08:48:35;18.70;;;11.33;;
4521;SDS011;2273;48.464;11.926;2024-01-07T08:51:01;15.90;;;9.90;;
4521;SDS011;2273;48.464;11.926;2024-01-07T08:53:26;17.73;;;9.93;;
4521;SDS011;2273;48.464;11.926;2024-01-07T08:55:52;18.87;;;10.87;;
4521;SDS011;2273;48.464;11.926;2024-01-07T08:58:17;18.70;;;10.37;;
4521;SDS011;2273;48.464;11.926;2024-01-07T09:00:43;17.77;;;10.00;;
4521;SDS011;2273;48.464;11.926;2024-01-07T09:03:09;18.95;;;10.65;;
4521;SDS011;2273;48.464;11.926;2024-01-07T09:05:35;16.67;;;10.60;;
4521;SDS011;2273;48.464;11.926;2024-01-07T09:08:00;15.10;;;9.30;;
4521;SDS011;2273;48.464;11.926;2024-01-07T09:10:27;15.80;;;9.50;;
4521;SDS011;2273;48.464;11.926;2024-01-07T09:12:52;16.67;;;10.00;;
4521;SDS011;2273;48.464;11.926;2024-01-07T09:15:18;16.40;;;10.20;;
4521;SDS011;2273;48.464;11.926;2024-01-07T09:17:45;17.77;;;9.68;;
4521;SDS011;2273;48.464;11.926;2024-01-07T09:20:11;15.40;;;9.75;;
4521;SDS011;2273;48.464;11.926;2024-01-07T09:22:37;17.13;;;10.70;;
4521;SDS011;2273;48.464;11.926;2024-01-07T09:25:02;18.73;;;10.10;;
4521;SDS011;2273;48.464;11.926;2024-01-07T09:27:31;16.05;;;9.55;;
4521;SDS011;2273;48.464;11.926;2024-01-07T09:29:58;17.27;;;10.38;;
4521;SDS011;2273;48.464;11.926;2024-01-07T09:32:23;15.70;;;9.83;;
4521;SDS011;2273;48.464;11.926;2024-01-07T09:34:48;19.37;;;10.97;;
4521;SDS011;2273;48.464;11.926;2024-01-07T09:37:14;17.50;;;10.93;;
4521;SDS011;2273;48.464;11.926;2024-01-07T09:39:40;18.40;;;11.20;;
4521;SDS011;2273;48.464;11.926;2024-01-07T09:42:16;21.05;;;11.38;;
4521;SDS011;2273;48.464;11.926;2024-01-07T09:44:42;18.48;;;11.60;;
4521;SDS011;2273;48.464;11.926;2024-01-07T09:47:12;22.03;;;11.07;;
4521;SDS011;2273;48.464;11.926;2024-01-07T09:49:40;16.63;;;10.30;;
4521;SDS011;2273;48.464;11.926;2024-01-07T09:52:10;17.92;;;11.27;;
4521;SDS011;2273;48.464;11.926;2024-01-07T09:54:37;18.98;;;10.90;;
4521;SDS011;2273;48.464;11.926;2024-01-07T09:57:04;19.77;;;11.43;;
4521;SDS011;2273;48.464;11.926;2024-01-07T09:59:34;20.05;;;11.60;;
4521;SDS011;2273;48.464;11.926;2024-01-07T10:02:00;19.05;;;10.18;;
4521;SDS011;2273;48.464;11.926;2024-01-07T10:04:26;20.07;;;10.40;;
4521;SDS011;2273;48.464;11.926;2024-01-07T10:06:53;18.35;;;11.38;;
4521;SDS011;2273;48.464;11.926;2024-01-07T10:09:19;16.42;;;10.60;;
4521;SDS011;2273;48.464;11.926;2024-01-07T10:11:45;20.90;;;11.27;;
4521;SDS011;2273;48.464;11.926;2024-01-07T10:14:10;21.07;;;12.10;;
4521;SDS011;2273;48.464;11.926;2024-01-07T10:16:36;19.07;;;11.60;;
4521;SDS011;2273;48.464;11.926;2024-01-07T10:19:02;17.37;;;11.43;;
4521;SDS011;2273;48.464;11.926;2024-01-07T10:21:27;19.50;;;11.50;;
4521;SDS011;2273;48.464;11.926;2024-01-07T10:24:06;18.40;;;11.00;;
4521;SDS011;2273;48.464;11.926;2024-01-07T10:26:33;20.42;;;12.05;;
4521;SDS011;2273;48.464;11.926;2024-01-07T10:28:58;17.03;;;10.63;;
4521;SDS011;2273;48.464;11.926;2024-01-07T10:31:24;19.30;;;11.03;;
4521;SDS011;2273;48.464;11.926;2024-01-07T10:33:49;21.00;;;11.97;;
4521;SDS011;2273;48.464;11.926;2024-01-07T10:36:15;22.07;;;11.30;;
4521;SDS011;2273;48.464;11.926;2024-01-07T10:38:41;17.95;;;11.07;;
4521;SDS011;2273;48.464;11.926;2024-01-07T10:41:09;15.88;;;10.13;;
4521;SDS011;2273;48.464;11.926;2024-01-07T10:43:36;16.73;;;10.32;;
4521;SDS011;2273;48.464;11.926;2024-01-07T10:46:03;16.13;;;10.65;;
4521;SDS011;2273;48.464;11.926;2024-01-07T10:48:33;21.48;;;10.77;;
4521;SDS011;2273;48.464;11.926;2024-01-07T10:51:03;19.02;;;11.52;;
4521;SDS011;2273;48.464;11.926;2024-01-07T10:53:32;21.50;;;11.20;;
4521;SDS011;2273;48.464;11.926;2024-01-07T10:56:00;17.52;;;10.43;;
4521;SDS011;2273;48.464;11.926;2024-01-07T10:58:29;20.65;;;12.10;;
4521;SDS011;2273;48.464;11.926;2024-01-07T11:00:58;23.40;;;12.40;;
4521;SDS011;2273;48.464;11.926;2024-01-07T11:03:31;20.00;;;12.27;;
4521;SDS011;2273;48.464;11.926;2024-01-07T11:06:03;22.23;;;12.60;;
4521;SDS011;2273;48.464;11.926;2024-01-07T11:08:36;19.55;;;12.57;;
4521;SDS011;2273;48.464;11.926;2024-01-07T11:11:06;20.70;;;11.80;;
4521;SDS011;2273;48.464;11.926;2024-01-07T11:13:35;19.73;;;11.57;;
4521;SDS011;2273;48.464;11.926;2024-01-07T11:16:03;16.20;;;10.10;;
4521;SDS011;2273;48.464;11.926;2024-01-07T11:18:39;17.77;;;10.85;;
4521;SDS011;2273;48.464;11.926;2024-01-07T11:21:05;19.90;;;12.00;;
4521;SDS011;2273;48.464;11.926;2024-01-07T11:23:34;27.03;;;12.23;;
4521;SDS011;2273;48.464;11.926;2024-01-07T11:26:05;17.20;;;10.27;;
4521;SDS011;2273;48.464;11.926;2024-01-07T11:31:12;17.27;;;10.88;;
4521;SDS011;2273;48.464;11.926;2024-01-07T11:33:38;20.00;;;11.68;;
4521;SDS011;2273;48.464;11.926;2024-01-07T11:36:04;17.97;;;11.43;;
4521;SDS011;2273;48.464;11.926;2024-01-07T11:38:31;17.45;;;10.95;;
4521;SDS011;2273;48.464;11.926;2024-01-07T11:40:57;19.07;;;11.40;;
4521;SDS011;2273;48.464;11.926;2024-01-07T11:43:24;17.08;;;11.07;;
4521;SDS011;2273;48.464;11.926;2024-01-07T11:45:49;17.77;;;11.30;;
4521;SDS011;2273;48.464;11.926;2024-01-07T11:48:16;16.55;;;11.15;;
4521;SDS011;2273;48.464;11.926;2024-01-07T11:50:41;17.83;;;11.03;;
4521;SDS011;2273;48.464;11.926;2024-01-07T11:53:07;16.30;;;10.00;;
4521;SDS011;2273;48.464;11.926;2024-01-07T11:55:33;16.48;;;10.43;;
4521;SDS011;2273;48.464;11.926;2024-01-07T11:58:03;18.35;;;10.55;;
4521;SDS011;2273;48.464;11.926;2024-01-07T12:00:35;18.90;;;12.18;;
4521;SDS011;2273;48.464;11.926;2024-01-07T12:03:00;18.30;;;10.95;;
4521;SDS011;2273;48.464;11.926;2024-01-07T12:05:29;18.40;;;11.40;;
4521;SDS011;2273;48.464;11.926;2024-01-07T12:07:55;18.73;;;11.27;;
4521;SDS011;2273;48.464;11.926;2024-01-07T12:10:20;20.97;;;11.57;;
4521;SDS011;2273;48.464;11.926;2024-01-07T12:12:47;19.63;;;11.03;;
4521;SDS011;2273;48.464;11.926;2024-01-07T12:15:12;17.55;;;11.10;;
4521;SDS011;2273;48.464;11.926;2024-01-07T12:17:38;17.23;;;10.60;;
4521;SDS011;2273;48.464;11.926;2024-01-07T12:20:05;15.65;;;9.50;;
4521;SDS011;2273;48.464;11.926;2024-01-07T12:22:32;17.17;;;9.82;;
4521;SDS011;2273;48.464;11.926;2024-01-07T12:25:01;18.27;;;10.87;;
4521;SDS011;2273;48.464;11.926;2024-01-07T12:27:36;16.70;;;11.18;;
4521;SDS011;2273;48.464;11.926;2024-01-07T12:30:02;15.35;;;10.32;;
4521;SDS011;2273;48.464;11.926;2024-01-07T12:32:30;19.13;;;11.10;;
4521;SDS011;2273;48.464;11.926;2024-01-07T12:34:59;17.33;;;10.47;;
4521;SDS011;2273;48.464;11.926;2024-01-07T12:37:28;19.65;;;11.10;;
4521;SDS011;2273;48.464;11.926;2024-01-07T12:39:53;21.63;;;12.20;;
4521;SDS011;2273;48.464;11.926;2024-01-07T12:42:19;17.65;;;10.65;;
4521;SDS011;2273;48.464;11.926;2024-01-07T12:44:49;24.45;;;11.95;;
4521;SDS011;2273;48.464;11.926;2024-01-07T12:47:14;14.73;;;9.90;;
4521;SDS011;2273;48.464;11.926;2024-01-07T12:49:40;15.80;;;9.80;;
4521;SDS011;2273;48.464;11.926;2024-01-07T12:52:05;15.07;;;10.20;;
4521;SDS011;2273;48.464;11.926;2024-01-07T12:54:31;18.70;;;10.97;;
4521;SDS011;2273;48.464;11.926;2024-01-07T12:56:56;16.10;;;10.13;;
4521;SDS011;2273;48.464;11.926;2024-01-07T12:59:25;18.77;;;11.55;;
4521;SDS011;2273;48.464;11.926;2024-01-07T13:01:51;20.93;;;11.00;;
4521;SDS011;2273;48.464;11.926;2024-01-07T13:04:17;17.80;;;11.03;;
4521;SDS011;2273;48.464;11.926;2024-01-07T13:06:42;17.97;;;12.10;;
4521;SDS011;2273;48.464;11.926;2024-01-07T13:09:07;17.10;;;10.40;;
4521;SDS011;2273;48.464;11.926;2024-01-07T13:11:34;17.02;;;10.00;;
4521;SDS011;2273;48.464;11.926;2024-01-07T13:14:00;19.43;;;12.20;;
4521;SDS011;2273;48.464;11.926;2024-01-07T13:16:27;20.40;;;12.30;;
4521;SDS011;2273;48.464;11.926;2024-01-07T13:18:55;18.90;;;10.60;;
4521;SDS011;2273;48.464;11.926;2024-01-07T13:21:20;15.50;;;10.30;;
4521;SDS011;2273;48.464;11.926;2024-01-07T13:23:46;18.90;;;10.80;;
4521;SDS011;2273;48.464;11.926;2024-01-07T13:26:13;17.73;;;11.52;;
4521;SDS011;2273;48.464;11.926;2024-01-07T13:28:38;17.90;;;11.10;;
4521;SDS011;2273;48.464;11.926;2024-01-07T13:31:04;19.03;;;10.53;;
4521;SDS011;2273;48.464;11.926;2024-01-07T13:33:31;17.23;;;10.50;;
4521;SDS011;2273;48.464;11.926;2024-01-07T13:35:57;18.23;;;10.33;;
4521;SDS011;2273;48.464;11.926;2024-01-07T13:38:23;17.63;;;10.63;;
4521;SDS011;2273;48.464;11.926;2024-01-07T13:40:48;16.33;;;9.63;;
4521;SDS011;2273;48.464;11.926;2024-01-07T13:43:13;14.90;;;9.20;;
4521;SDS011;2273;48.464;11.926;2024-01-07T13:45:40;16.45;;;10.60;;
4521;SDS011;2273;48.464;11.926;2024-01-07T13:48:06;17.43;;;10.30;;
4521;SDS011;2273;48.464;11.926;2024-01-07T13:50:32;18.00;;;10.73;;
4521;SDS011;2273;48.464;11.926;2024-01-07T13:52:58;15.10;;;9.75;;
4521;SDS011;2273;48.464;11.926;2024-01-07T13:55:23;16.70;;;10.53;;
4521;SDS011;2273;48.464;11.926;2024-01-07T13:57:49;16.60;;;10.13;;
4521;SDS011;2273;48.464;11.926;2024-01-07T14:00:14;15.20;;;9.53;;
4521;SDS011;2273;48.464;11.926;2024-01-07T14:02:43;18.30;;;10.48;;
4521;SDS011;2273;48.464;11.926;2024-01-07T14:05:10;16.83;;;10.05;;
4521;SDS011;2273;48.464;11.926;2024-01-07T14:07:36;16.48;;;9.85;;
4521;SDS011;2273;48.464;11.926;2024-01-07T14:10:03;14.55;;;9.05;;
4521;SDS011;2273;48.464;11.926;2024-01-07T14:12:29;18.70;;;10.10;;
4521;SDS011;2273;48.464;11.926;2024-01-07T14:14:57;15.18;;;9.75;;
4521;SDS011;2273;48.464;11.926;2024-01-07T14:17:24;19.48;;;10.05;;
4521;SDS011;2273;48.464;11.926;2024-01-07T14:19:49;17.33;;;10.90;;
4521;SDS011;2273;48.464;11.926;2024-01-07T14:22:17;22.23;;;12.63;;
4521;SDS011;2273;48.464;11.926;2024-01-07T14:24:43;21.30;;;11.60;;
4521;SDS011;2273;48.464;11.926;2024-01-07T14:27:08;19.77;;;10.87;;
4521;SDS011;2273;48.464;11.926;2024-01-07T14:29:36;19.95;;;10.93;;
4521;SDS011;2273;48.464;11.926;2024-01-07T14:32:02;14.48;;;9.55;;
4521;SDS011;2273;48.464;11.926;2024-01-07T14:34:29;20.30;;;10.98;;